Time;durP1;ratioP1;P1;durP2;ratioP2;P2;SDS_P1;SDS_P2;PMS_P1;PMS_P2;Temp;Humidity;BMP_temperature;BMP_pressure;BME280_temperature;BME280_humidity;BME280_pressure;Samples;Min_cycle;Max_cycle;Signal;HPM_P1;HPM_P2
2020/12/13 00:00:40;;;;;;;95.70;50.17;;;;;;;;;;4971710;28;20165;-81
2020/12/13 00:03:07;;;;;;;87.10;51.80;;;;;;;;;;5000177;28;20180;-83
2020/12/13 00:05:34;;;;;;;101.25;63.65;;;;;;;;;;4968742;28;20196;-81
2020/12/13 00:08:00;;;;;;;85.80;51.03;;;;;;;;;;4968860;28;20162;-82
2020/12/13 00:10:26;;;;;;;79.65;52.53;;;;;;;;;;4982647;28;20579;-80
2020/12/13 00:12:52;;;;;;;78.50;50.05;;;;;;;;;;4973626;28;20200;-81
2020/12/13 00:15:18;;;;;;;80.78;53.80;;;;;;;;;;5001335;28;20227;-82
2020/12/13 00:17:47;;;;;;;67.82;47.10;;;;;;;;;;4992965;28;20180;-80
2020/12/13 00:20:13;;;;;;;80.20;49.92;;;;;;;;;;5000039;28;20185;-82
2020/12/13 00:22:40;;;;;;;83.95;52.20;;;;;;;;;;4967176;28;20184;-80
2020/12/13 00:25:06;;;;;;;98.05;65.05;;;;;;;;;;4978235;28;20196;-82
2020/12/13 00:27:33;;;;;;;96.25;56.20;;;;;;;;;;4967466;28;20184;-81
2020/12/13 00:29:59;;;;;;;97.88;55.45;;;;;;;;;;4983227;28;20175;-82
2020/12/13 00:32:29;;;;;;;85.88;49.65;;;;;;;;;;4984269;28;20208;-82
2020/12/13 00:34:56;;;;;;;89.13;51.40;;;;;;;;;;4984878;28;20204;-82
2020/12/13 00:37:22;;;;;;;94.20;51.72;;;;;;;;;;5000314;28;20265;-82
2020/12/13 00:39:48;;;;;;;90.13;56.88;;;;;;;;;;4957323;28;20204;-84
2020/12/13 00:42:15;;;;;;;96.60;62.90;;;;;;;;;;4975134;28;20268;-82
2020/12/13 00:44:41;;;;;;;84.47;52.65;;;;;;;;;;4966517;28;20208;-82
2020/12/13 00:47:07;;;;;;;91.68;55.85;;;;;;;;;;5000239;28;20207;-83
2020/12/13 00:49:33;;;;;;;85.53;53.33;;;;;;;;;;4963479;28;20216;-83
2020/12/13 00:52:01;;;;;;;90.00;55.25;;;;;;;;;;4970418;28;20180;-82
2020/12/13 00:54:27;;;;;;;82.53;53.70;;;;;;;;;;4974447;28;20196;-82
2020/12/13 00:56:54;;;;;;;90.70;53.95;;;;;;;;;;4977923;28;20243;-83
2020/12/13 00:59:21;;;;;;;82.45;50.63;;;;;;;;;;4979860;28;20184;-80
2020/12/13 01:01:47;;;;;;;108.10;60.88;;;;;;;;;;4956553;28;20257;-83
2020/12/13 01:04:13;;;;;;;89.68;54.15;;;;;;;;;;5000704;28;20232;-83
2020/12/13 01:06:39;;;;;;;81.68;49.42;;;;;;;;;;5000325;28;20185;-83
2020/12/13 01:09:05;;;;;;;93.93;54.08;;;;;;;;;;4991995;28;20181;-82
2020/12/13 01:11:32;;;;;;;94.03;56.53;;;;;;;;;;5010576;28;20180;-83
2020/12/13 01:13:59;;;;;;;83.20;52.88;;;;;;;;;;4981136;28;20220;-81
2020/12/13 01:16:26;;;;;;;89.68;56.42;;;;;;;;;;5016536;28;20199;-81
2020/12/13 01:18:52;;;;;;;85.88;55.45;;;;;;;;;;4990323;28;20644;-81
2020/12/13 01:21:26;;;;;;;81.30;55.30;;;;;;;;;;4989829;28;20252;-82
2020/12/13 01:23:52;;;;;;;101.65;57.92;;;;;;;;;;4996421;28;20193;-79
2020/12/13 01:26:19;;;;;;;84.32;55.40;;;;;;;;;;5002200;28;20175;-81
2020/12/13 01:28:46;;;;;;;109.38;61.58;;;;;;;;;;5004291;28;20192;-82
2020/12/13 01:31:14;;;;;;;100.28;58.97;;;;;;;;;;4977466;28;20178;-81
2020/12/13 01:33:40;;;;;;;93.35;53.88;;;;;;;;;;4982087;28;20177;-81
2020/12/13 01:36:10;;;;;;;95.93;59.20;;;;;;;;;;4997920;28;20169;-83
2020/12/13 01:38:36;;;;;;;91.60;57.92;;;;;;;;;;4978680;28;20161;-81
2020/12/13 01:41:02;;;;;;;93.00;53.92;;;;;;;;;;4988970;28;20656;-82
2020/12/13 01:43:29;;;;;;;86.95;56.25;;;;;;;;;;4995706;28;20179;-81
2020/12/13 01:45:55;;;;;;;110.80;56.22;;;;;;;;;;4985599;28;20183;-82
2020/12/13 01:48:21;;;;;;;114.00;55.92;;;;;;;;;;4987300;28;20209;-82
2020/12/13 01:51:05;;;;;;;99.97;54.30;;;;;;;;;;4988773;28;20169;-81
2020/12/13 01:53:33;;;;;;;103.95;55.88;;;;;;;;;;4982642;28;20545;-80
2020/12/13 01:56:01;;;;;;;93.32;59.38;;;;;;;;;;4993091;28;20173;-80
2020/12/13 01:58:29;;;;;;;102.57;59.13;;;;;;;;;;4986284;28;20252;-80
2020/12/13 02:00:58;;;;;;;100.13;52.85;;;;;;;;;;5004196;28;20168;-81
2020/12/13 02:03:26;;;;;;;84.22;53.05;;;;;;;;;;4990766;28;20204;-82
2020/12/13 02:05:59;;;;;;;103.05;55.45;;;;;;;;;;4992842;28;20540;-83
2020/12/13 02:08:33;;;;;;;98.22;54.83;;;;;;;;;;4981068;28;20625;-80
2020/12/13 02:11:00;;;;;;;95.40;57.92;;;;;;;;;;5002408;28;20182;-82
2020/12/13 02:13:26;;;;;;;95.22;58.10;;;;;;;;;;4985299;28;20636;-83
2020/12/13 02:15:52;;;;;;;110.40;55.40;;;;;;;;;;4984496;28;20568;-80
2020/12/13 02:18:18;;;;;;;108.97;62.95;;;;;;;;;;5002785;28;20161;-81
2020/12/13 02:20:44;;;;;;;105.63;55.97;;;;;;;;;;4970440;28;20181;-81
2020/12/13 02:23:11;;;;;;;103.57;53.28;;;;;;;;;;4965044;28;20660;-81
2020/12/13 02:25:37;;;;;;;92.30;55.25;;;;;;;;;;4980430;28;20196;-81
2020/12/13 02:28:03;;;;;;;89.15;54.15;;;;;;;;;;4987778;28;20196;-83
2020/12/13 02:30:30;;;;;;;84.22;53.63;;;;;;;;;;5006240;28;20598;-81
2020/12/13 02:32:56;;;;;;;81.85;53.15;;;;;;;;;;4988858;28;20264;-82
2020/12/13 02:35:22;;;;;;;82.35;53.92;;;;;;;;;;5011816;28;20197;-82
2020/12/13 02:37:49;;;;;;;105.30;61.35;;;;;;;;;;4988346;28;20213;-80
2020/12/13 02:40:15;;;;;;;104.13;56.72;;;;;;;;;;4999665;28;20200;-80
2020/12/13 02:42:44;;;;;;;102.63;53.72;;;;;;;;;;5004165;28;20175;-81
2020/12/13 02:45:10;;;;;;;81.53;50.10;;;;;;;;;;4996901;28;20189;-81
2020/12/13 02:47:36;;;;;;;73.88;49.38;;;;;;;;;;4994004;28;20165;-81
2020/12/13 02:50:03;;;;;;;93.88;55.60;;;;;;;;;;4988930;28;20190;-82
2020/12/13 02:52:29;;;;;;;87.65;49.70;;;;;;;;;;4988496;28;20182;-80
2020/12/13 02:54:55;;;;;;;85.53;50.40;;;;;;;;;;4999811;28;20717;-81
2020/12/13 02:57:22;;;;;;;87.25;53.08;;;;;;;;;;4998742;28;20200;-81
2020/12/13 02:59:48;;;;;;;90.30;54.28;;;;;;;;;;5006685;28;20245;-80
2020/12/13 03:02:14;;;;;;;90.00;54.60;;;;;;;;;;4989170;28;20168;-81
2020/12/13 03:04:40;;;;;;;86.72;50.10;;;;;;;;;;4989281;28;20213;-81
2020/12/13 03:07:09;;;;;;;84.55;49.10;;;;;;;;;;5002216;28;20180;-80
2020/12/13 03:09:35;;;;;;;72.38;48.88;;;;;;;;;;4980729;28;20183;-79
2020/12/13 03:12:02;;;;;;;86.40;48.40;;;;;;;;;;4987267;28;20181;-80
2020/12/13 03:14:28;;;;;;;79.70;50.15;;;;;;;;;;4996825;28;20204;-80
2020/12/13 03:16:54;;;;;;;82.00;50.50;;;;;;;;;;4984233;28;20195;-81
2020/12/13 03:19:20;;;;;;;79.32;49.45;;;;;;;;;;5000195;28;20173;-81
2020/12/13 03:21:48;;;;;;;66.57;44.55;;;;;;;;;;5002860;28;20188;-80
2020/12/13 03:24:15;;;;;;;84.63;49.20;;;;;;;;;;4993842;28;20197;-79
2020/12/13 03:26:42;;;;;;;79.25;48.65;;;;;;;;;;4971279;28;20223;-80
2020/12/13 03:29:08;;;;;;;78.93;45.95;;;;;;;;;;4988207;28;20204;-79
2020/12/13 03:31:34;;;;;;;85.38;48.30;;;;;;;;;;4973702;28;20229;-81
2020/12/13 03:34:00;;;;;;;85.35;47.45;;;;;;;;;;5012120;28;20227;-81
2020/12/13 03:36:26;;;;;;;86.55;46.17;;;;;;;;;;5011807;28;20172;-82
2020/12/13 03:38:52;;;;;;;77.90;51.42;;;;;;;;;;4977738;28;20176;-81
2020/12/13 03:41:19;;;;;;;75.72;49.78;;;;;;;;;;5011238;28;20169;-82
2020/12/13 03:43:47;;;;;;;75.00;51.63;;;;;;;;;;5001306;28;20541;-81
2020/12/13 03:46:13;;;;;;;77.32;45.58;;;;;;;;;;4999192;28;20176;-79
2020/12/13 03:48:40;;;;;;;74.85;47.65;;;;;;;;;;5008556;28;20199;-81
2020/12/13 03:51:06;;;;;;;76.72;49.83;;;;;;;;;;4987061;28;20183;-80
2020/12/13 03:53:32;;;;;;;85.25;52.13;;;;;;;;;;4978457;28;20184;-81
2020/12/13 03:55:58;;;;;;;74.30;48.95;;;;;;;;;;5001699;28;20165;-82
2020/12/13 03:58:24;;;;;;;85.38;47.83;;;;;;;;;;4986984;28;20195;-81
2020/12/13 04:00:50;;;;;;;78.57;47.70;;;;;;;;;;4987020;28;20171;-81
2020/12/13 04:03:16;;;;;;;92.13;49.40;;;;;;;;;;4985692;28;20209;-81
2020/12/13 04:05:42;;;;;;;75.93;49.78;;;;;;;;;;4951644;28;20222;-82
2020/12/13 04:08:09;;;;;;;80.60;49.15;;;;;;;;;;4960505;28;20184;-81
2020/12/13 04:10:35;;;;;;;89.07;54.75;;;;;;;;;;4986407;28;20176;-81
2020/12/13 04:13:01;;;;;;;91.80;52.53;;;;;;;;;;4986809;28;20176;-82
2020/12/13 04:15:27;;;;;;;91.47;52.63;;;;;;;;;;4987172;28;20285;-82
2020/12/13 04:17:53;;;;;;;87.15;50.67;;;;;;;;;;4988865;28;20644;-82
2020/12/13 04:20:19;;;;;;;75.30;48.55;;;;;;;;;;5004682;28;20188;-81
2020/12/13 04:22:45;;;;;;;79.78;51.08;;;;;;;;;;4966740;28;20185;-81
2020/12/13 04:25:11;;;;;;;79.40;50.78;;;;;;;;;;5004368;28;20188;-81
2020/12/13 04:27:37;;;;;;;82.25;50.58;;;;;;;;;;4980718;28;20205;-81
2020/12/13 04:30:04;;;;;;;88.47;49.58;;;;;;;;;;4968680;28;20188;-83
2020/12/13 04:32:31;;;;;;;83.28;49.78;;;;;;;;;;5001853;28;20173;-82
2020/12/13 04:34:57;;;;;;;95.28;51.95;;;;;;;;;;4993630;28;20207;-81
2020/12/13 04:37:23;;;;;;;94.90;49.15;;;;;;;;;;4993094;28;20168;-80
2020/12/13 04:39:51;;;;;;;76.90;48.80;;;;;;;;;;4983282;28;20657;-82
2020/12/13 04:42:17;;;;;;;90.07;50.53;;;;;;;;;;4984463;28;20192;-82
2020/12/13 04:44:43;;;;;;;92.30;53.47;;;;;;;;;;4979026;28;20549;-80
2020/12/13 04:47:10;;;;;;;93.63;52.30;;;;;;;;;;4983197;28;20189;-78
2020/12/13 04:49:36;;;;;;;85.40;53.30;;;;;;;;;;4970069;28;20196;-81
2020/12/13 04:52:04;;;;;;;82.57;51.30;;;;;;;;;;4979547;28;22325;-80
2020/12/13 04:54:30;;;;;;;93.35;52.17;;;;;;;;;;5009089;22;20872;-80
2020/12/13 04:56:58;;;;;;;90.60;52.13;;;;;;;;;;5057967;28;20155;-80
2020/12/13 04:59:28;;;;;;;92.10;53.95;;;;;;;;;;5040659;28;20560;-80
2020/12/13 05:01:54;;;;;;;83.30;50.25;;;;;;;;;;5029738;28;20179;-80
2020/12/13 05:04:20;;;;;;;82.50;49.92;;;;;;;;;;5049791;28;20203;-80
2020/12/13 05:06:47;;;;;;;89.10;48.83;;;;;;;;;;5010355;28;20176;-80
2020/12/13 05:09:13;;;;;;;90.78;49.45;;;;;;;;;;5036279;28;20182;-80
2020/12/13 05:11:40;;;;;;;77.28;44.85;;;;;;;;;;5032072;28;20160;-80
2020/12/13 05:14:06;;;;;;;89.57;50.85;;;;;;;;;;5044102;28;20302;-81
2020/12/13 05:16:32;;;;;;;87.88;54.20;;;;;;;;;;5077851;28;20213;-80
2020/12/13 05:18:58;;;;;;;75.95;48.25;;;;;;;;;;5076663;28;20190;-79
2020/12/13 05:21:25;;;;;;;78.88;50.92;;;;;;;;;;5043877;28;20552;-79
2020/12/13 05:23:52;;;;;;;83.10;51.53;;;;;;;;;;5025525;28;20267;-79
2020/12/13 05:26:22;;;;;;;91.07;55.22;;;;;;;;;;5023142;28;20183;-79
2020/12/13 05:28:52;;;;;;;78.32;51.40;;;;;;;;;;5034343;28;20603;-80
2020/12/13 05:31:20;;;;;;;96.80;51.95;;;;;;;;;;5036042;28;20171;-79
2020/12/13 05:33:50;;;;;;;89.28;52.55;;;;;;;;;;5031570;28;20215;-79
2020/12/13 05:36:17;;;;;;;93.55;59.03;;;;;;;;;;5010362;28;20199;-79
2020/12/13 05:38:44;;;;;;;96.63;52.63;;;;;;;;;;5013197;28;20179;-79
2020/12/13 05:41:11;;;;;;;86.75;51.83;;;;;;;;;;5034779;28;20171;-80
2020/12/13 05:43:50;;;;;;;100.45;53.15;;;;;;;;;;5026167;28;20535;-80
2020/12/13 05:51:40;;;;;;;102.70;54.47;;;;;;;;;;5036071;28;20172;-79
2020/12/13 05:54:24;;;;;;;104.70;55.55;;;;;;;;;;5016747;28;20199;-79
2020/12/13 05:56:57;;;;;;;100.80;58.60;;;;;;;;;;5013155;28;20203;-79
2020/12/13 05:59:27;;;;;;;101.80;58.58;;;;;;;;;;5017413;28;20207;-79
2020/12/13 06:01:54;;;;;;;105.32;59.05;;;;;;;;;;5022051;28;20624;-79
2020/12/13 06:04:24;;;;;;;116.22;61.28;;;;;;;;;;5040921;28;20231;-79
2020/12/13 06:06:53;;;;;;;98.63;51.22;;;;;;;;;;5035157;28;20175;-80
2020/12/13 06:09:28;;;;;;;100.50;55.30;;;;;;;;;;5015915;28;20191;-80
2020/12/13 06:11:59;;;;;;;97.68;57.33;;;;;;;;;;4996692;28;20258;-80
2020/12/13 06:14:26;;;;;;;100.43;54.05;;;;;;;;;;5038856;28;20210;-80
2020/12/13 06:16:52;;;;;;;91.72;52.22;;;;;;;;;;5034206;28;20171;-80
2020/12/13 06:19:31;;;;;;;92.13;54.63;;;;;;;;;;5003462;28;20171;-79
2020/12/13 06:22:11;;;;;;;;;;;;;;;;;;;;;
2020/12/13 06:24:48;;;;;;;93.28;49.25;;;;;;;;;;5015035;28;20238;-79
2020/12/13 06:27:36;;;;;;;;;;;;;;;;;;;;;
2020/12/13 06:30:02;;;;;;;89.55;50.78;;;;;;;;;;5010675;28;20181;-80
2020/12/13 06:32:41;;;;;;;90.28;51.65;;;;;;;;;;5015458;28;20195;-80
2020/12/13 06:35:11;;;;;;;106.05;50.28;;;;;;;;;;5015684;28;20209;-80
2020/12/13 06:37:38;;;;;;;105.07;54.50;;;;;;;;;;5040865;28;20174;-81
2020/12/13 06:40:05;;;;;;;98.28;53.67;;;;;;;;;;5022199;28;20214;-81
2020/12/13 06:42:33;;;;;;;95.45;50.45;;;;;;;;;;5012704;28;20178;-81
2020/12/13 06:45:09;;;;;;;88.50;54.97;;;;;;;;;;5040591;28;20270;-81
2020/12/13 06:47:39;;;;;;;87.70;50.30;;;;;;;;;;5012082;28;20258;-80
2020/12/13 06:50:08;;;;;;;104.85;50.33;;;;;;;;;;5003933;28;20171;-80
2020/12/13 06:52:34;;;;;;;80.95;45.88;;;;;;;;;;5059111;28;20168;-80
2020/12/13 06:58:39;;;;;;;90.80;47.67;;;;;;;;;;5046507;28;20193;-80
2020/12/13 07:01:14;;;;;;;80.47;48.47;;;;;;;;;;5018926;28;20286;-82
2020/12/13 07:03:40;;;;;;;84.85;50.92;;;;;;;;;;5014784;28;20175;-80
2020/12/13 07:06:08;;;;;;;70.68;48.75;;;;;;;;;;5038405;28;20195;-81
2020/12/13 07:08:35;;;;;;;75.70;43.08;;;;;;;;;;5039770;28;20171;-80
2020/12/13 07:11:02;;;;;;;77.05;50.08;;;;;;;;;;5021047;28;20176;-80
2020/12/13 07:13:30;;;;;;;86.70;48.05;;;;;;;;;;5032492;28;20171;-79
2020/12/13 07:16:07;;;;;;;78.15;45.17;;;;;;;;;;5021580;28;20736;-79
2020/12/13 07:18:35;;;;;;;93.90;46.50;;;;;;;;;;5033449;28;20175;-80
2020/12/13 07:21:01;;;;;;;85.05;50.67;;;;;;;;;;5037555;28;20250;-79
2020/12/13 07:23:27;;;;;;;76.90;47.60;;;;;;;;;;5041052;28;20227;-80
2020/12/13 07:25:54;;;;;;;67.22;45.47;;;;;;;;;;5044247;28;20722;-80
2020/12/13 07:28:22;;;;;;;74.68;45.22;;;;;;;;;;5018562;28;20171;-79
2020/12/13 07:30:48;;;;;;;74.63;49.63;;;;;;;;;;5016330;28;20541;-80
2020/12/13 07:33:15;;;;;;;81.68;47.60;;;;;;;;;;5041424;28;20163;-80
2020/12/13 07:35:42;;;;;;;68.75;44.25;;;;;;;;;;5018451;28;20199;-79
2020/12/13 07:38:09;;;;;;;74.63;45.83;;;;;;;;;;5036576;28;20537;-80
2020/12/13 07:40:35;;;;;;;67.18;42.92;;;;;;;;;;5048412;28;20766;-80
2020/12/13 07:43:02;;;;;;;78.85;47.22;;;;;;;;;;5004132;28;20179;-81
2020/12/13 07:45:28;;;;;;;71.93;44.40;;;;;;;;;;5044510;28;20195;-80
2020/12/13 07:48:01;;;;;;;76.45;45.20;;;;;;;;;;5044255;28;20586;-81
2020/12/13 07:50:28;;;;;;;70.15;46.80;;;;;;;;;;5046960;28;20155;-80
2020/12/13 07:52:54;;;;;;;73.22;43.28;;;;;;;;;;5044041;28;20237;-80
2020/12/13 07:55:20;;;;;;;63.58;40.63;;;;;;;;;;5031828;28;20226;-79
2020/12/13 07:57:49;;;;;;;71.90;45.95;;;;;;;;;;5041506;28;20194;-79
2020/12/13 08:00:15;;;;;;;69.38;42.50;;;;;;;;;;5034652;28;20207;-79
2020/12/13 08:02:42;;;;;;;64.32;45.00;;;;;;;;;;5036629;28;20171;-79
2020/12/13 08:05:10;;;;;;;65.70;48.38;;;;;;;;;;5039702;28;20285;-79
2020/12/13 08:07:37;;;;;;;55.30;41.33;;;;;;;;;;5034814;28;20182;-79
2020/12/13 08:10:03;;;;;;;57.72;39.20;;;;;;;;;;5014843;28;20507;-79
2020/12/13 08:12:36;;;;;;;56.97;39.60;;;;;;;;;;5005690;28;20258;-79
2020/12/13 08:15:02;;;;;;;69.95;47.08;;;;;;;;;;5037822;28;20609;-79
2020/12/13 08:17:28;;;;;;;73.18;45.22;;;;;;;;;;5027258;28;20250;-79
2020/12/13 08:19:57;;;;;;;72.38;43.95;;;;;;;;;;5011507;28;20195;-79
2020/12/13 08:22:24;;;;;;;72.15;47.83;;;;;;;;;;5035970;28;20178;-79
2020/12/13 08:24:53;;;;;;;73.80;47.22;;;;;;;;;;5037451;28;20206;-79
2020/12/13 08:27:20;;;;;;;66.32;41.47;;;;;;;;;;5040143;28;20164;-80
2020/12/13 08:29:46;;;;;;;69.47;43.60;;;;;;;;;;5035313;28;20167;-79
2020/12/13 08:32:23;;;;;;;61.13;43.90;;;;;;;;;;5037537;28;20190;-80
2020/12/13 08:34:50;;;;;;;64.20;43.20;;;;;;;;;;5038554;28;20200;-80
2020/12/13 08:37:25;;;;;;;62.50;43.10;;;;;;;;;;5044096;28;20206;-80
2020/12/13 08:39:51;;;;;;;86.97;60.70;;;;;;;;;;5040559;28;20199;-79
2020/12/13 08:42:26;;;;;;;65.72;44.70;;;;;;;;;;5028283;28;20167;-80
2020/12/13 08:44:52;;;;;;;65.93;43.60;;;;;;;;;;5022825;28;20282;-80
2020/12/13 08:47:20;;;;;;;63.20;41.67;;;;;;;;;;5038780;28;20670;-80
2020/12/13 08:49:50;;;;;;;64.35;43.30;;;;;;;;;;5037824;28;20262;-80
2020/12/13 08:52:20;;;;;;;62.22;43.92;;;;;;;;;;5008648;28;20172;-84
2020/12/13 08:54:53;;;;;;;66.90;43.10;;;;;;;;;;5010323;28;20206;-80
2020/12/13 08:57:26;;;;;;;63.33;45.38;;;;;;;;;;5039433;28;20155;-78
2020/12/13 09:00:11;;;;;;;62.28;41.08;;;;;;;;;;5037732;28;20179;-80
2020/12/13 09:02:37;;;;;;;58.17;42.10;;;;;;;;;;5036880;28;20175;-79
2020/12/13 09:05:04;;;;;;;62.92;43.15;;;;;;;;;;5036288;28;20179;-80
2020/12/13 09:07:33;;;;;;;68.03;43.33;;;;;;;;;;5032072;28;20632;-81
2020/12/13 09:10:09;;;;;;;57.92;42.35;;;;;;;;;;5036620;28;20175;-81
2020/12/13 09:12:40;;;;;;;58.85;40.60;;;;;;;;;;5036510;28;20635;-82
2020/12/13 09:15:13;;;;;;;55.70;41.55;;;;;;;;;;5015818;28;20565;-79
2020/12/13 09:17:40;;;;;;;63.67;41.25;;;;;;;;;;5033442;28;20159;-80
2020/12/13 09:20:06;;;;;;;58.20;43.60;;;;;;;;;;5026877;28;20419;-80
2020/12/13 09:22:32;;;;;;;53.25;39.70;;;;;;;;;;5017785;28;20233;-83
2020/12/13 09:24:59;;;;;;;53.20;42.80;;;;;;;;;;5035375;28;20197;-81
2020/12/13 09:27:26;;;;;;;57.55;36.92;;;;;;;;;;5018718;28;20172;-81
2020/12/13 09:29:52;;;;;;;60.17;40.72;;;;;;;;;;4985695;28;20542;-80
2020/12/13 09:32:19;;;;;;;57.78;41.83;;;;;;;;;;5007782;28;20167;-82
2020/12/13 09:34:46;;;;;;;57.78;43.80;;;;;;;;;;5036295;28;20310;-81
2020/12/13 09:37:13;;;;;;;52.00;40.95;;;;;;;;;;5016566;28;20175;-81
2020/12/13 09:39:40;;;;;;;61.92;43.40;;;;;;;;;;5042353;28;20191;-82
2020/12/13 09:42:06;;;;;;;61.50;39.67;;;;;;;;;;5014408;28;20252;-81
2020/12/13 09:44:32;;;;;;;57.45;44.25;;;;;;;;;;5035920;28;20233;-81
2020/12/13 09:47:00;;;;;;;62.58;40.30;;;;;;;;;;5020300;28;20183;-82
2020/12/13 09:49:30;;;;;;;61.28;40.75;;;;;;;;;;5042737;28;20171;-82
2020/12/13 09:52:00;;;;;;;62.55;42.10;;;;;;;;;;5014194;28;20184;-82
2020/12/13 09:54:27;;;;;;;56.85;38.83;;;;;;;;;;5046849;28;20692;-83
2020/12/13 09:56:53;;;;;;;59.42;39.63;;;;;;;;;;5027546;28;20172;-83
2020/12/13 09:59:19;;;;;;;48.53;37.47;;;;;;;;;;5040501;28;20186;-82
2020/12/13 10:01:46;;;;;;;56.75;38.45;;;;;;;;;;5028123;28;20195;-81
2020/12/13 10:04:12;;;;;;;61.33;41.03;;;;;;;;;;5018593;28;20172;-81
2020/12/13 10:09:12;;;;;;;50.67;38.88;;;;;;;;;;5040414;28;20171;-83
2020/12/13 10:11:39;;;;;;;61.60;45.30;;;;;;;;;;5059670;28;20170;-82
2020/12/13 10:14:06;;;;;;;60.17;44.03;;;;;;;;;;5054833;28;20206;-82
2020/12/13 10:16:35;;;;;;;60.87;40.30;;;;;;;;;;5020206;28;20278;-81
2020/12/13 10:19:02;;;;;;;49.50;39.63;;;;;;;;;;5009270;28;20422;-81
2020/12/13 10:21:29;;;;;;;49.03;36.78;;;;;;;;;;5021163;28;20179;-81
2020/12/13 10:23:56;;;;;;;53.83;39.53;;;;;;;;;;5038242;28;20171;-81
2020/12/13 10:26:23;;;;;;;50.42;38.50;;;;;;;;;;5038461;28;20174;-81
2020/12/13 10:28:49;;;;;;;54.20;39.22;;;;;;;;;;5033323;28;20214;-81
2020/12/13 10:31:15;;;;;;;52.90;38.22;;;;;;;;;;5014016;28;20168;-81
2020/12/13 10:33:42;;;;;;;52.13;41.53;;;;;;;;;;5018232;28;20171;-80
2020/12/13 10:36:09;;;;;;;57.90;40.53;;;;;;;;;;5013524;28;20204;-81
2020/12/13 10:38:35;;;;;;;49.47;40.17;;;;;;;;;;5010027;28;20258;-81
2020/12/13 10:41:05;;;;;;;51.75;38.25;;;;;;;;;;5035266;28;20213;-79
2020/12/13 10:43:31;;;;;;;44.78;37.05;;;;;;;;;;5018331;28;20167;-80
2020/12/13 10:45:57;;;;;;;48.45;38.55;;;;;;;;;;5017690;28;20199;-79
2020/12/13 10:48:23;;;;;;;53.15;38.72;;;;;;;;;;5014382;28;20183;-80
2020/12/13 10:50:51;;;;;;;52.10;40.63;;;;;;;;;;5036795;28;20239;-80
2020/12/13 10:53:17;;;;;;;51.60;38.33;;;;;;;;;;5036926;28;20542;-80
2020/12/13 10:55:46;;;;;;;52.87;43.03;;;;;;;;;;5037081;23;20220;-83
2020/12/13 10:58:13;;;;;;;49.33;36.97;;;;;;;;;;5026595;28;20424;-85
2020/12/13 11:00:39;;;;;;;54.10;39.50;;;;;;;;;;5014938;28;20434;-82
2020/12/13 11:03:05;;;;;;;52.57;40.60;;;;;;;;;;5013120;28;20438;-84
2020/12/13 11:05:32;;;;;;;47.63;38.00;;;;;;;;;;5013556;28;20437;-83
2020/12/13 11:07:58;;;;;;;49.30;36.60;;;;;;;;;;4997743;28;20777;-82
2020/12/13 11:10:27;;;;;;;55.20;41.42;;;;;;;;;;4998547;28;20440;-83
2020/12/13 11:12:53;;;;;;;50.00;38.97;;;;;;;;;;5002734;28;20196;-82
2020/12/13 11:15:22;;;;;;;58.80;43.43;;;;;;;;;;5005323;28;20200;-84
2020/12/13 11:17:48;;;;;;;49.40;40.27;;;;;;;;;;5018576;28;20432;-83
2020/12/13 11:20:15;;;;;;;47.95;39.92;;;;;;;;;;5002236;28;20440;-84
2020/12/13 11:22:41;;;;;;;67.80;49.67;;;;;;;;;;5005260;28;20172;-84
2020/12/13 11:25:07;;;;;;;49.25;38.90;;;;;;;;;;5002556;28;20456;-83
2020/12/13 11:27:35;;;;;;;44.80;38.40;;;;;;;;;;5001611;28;20173;-83
2020/12/13 11:30:18;;;;;;;52.50;39.60;;;;;;;;;;4988074;28;20483;-84
2020/12/13 11:32:49;;;;;;;49.70;39.70;;;;;;;;;;4988197;28;20413;-84
2020/12/13 11:35:16;;;;;;;50.40;40.77;;;;;;;;;;5015861;28;20490;-85
2020/12/13 11:37:46;;;;;;;55.07;41.50;;;;;;;;;;5022347;28;20424;-83
2020/12/13 11:40:13;;;;;;;49.43;37.57;;;;;;;;;;4997252;28;20420;-84
2020/12/13 11:42:39;;;;;;;51.13;40.20;;;;;;;;;;4999695;28;20415;-84
2020/12/13 11:45:08;;;;;;;59.73;45.20;;;;;;;;;;4988035;28;20511;-85
2020/12/13 11:47:35;;;;;;;50.50;40.37;;;;;;;;;;4986783;28;20454;-84
2020/12/13 11:50:02;;;;;;;44.53;36.27;;;;;;;;;;5004606;28;20404;-84
2020/12/13 11:52:28;;;;;;;47.33;39.67;;;;;;;;;;4997912;28;20424;-83
2020/12/13 11:55:07;;;;;;;;;;;;;;;;;;;;;
2020/12/13 11:57:47;;;;;;;52.83;37.50;;;;;;;;;;5013065;28;20519;-84
2020/12/13 12:00:13;;;;;;;59.73;43.97;;;;;;;;;;5020228;28;20495;-82
2020/12/13 12:02:41;;;;;;;56.47;42.20;;;;;;;;;;5022642;28;20419;-85
2020/12/13 12:05:07;;;;;;;46.17;38.20;;;;;;;;;;5006400;28;20518;-83
2020/12/13 12:07:33;;;;;;;49.80;39.67;;;;;;;;;;5001394;28;20169;-83
2020/12/13 12:10:01;;;;;;;51.63;39.07;;;;;;;;;;4996466;28;20427;-85
2020/12/13 12:12:29;;;;;;;49.67;39.70;;;;;;;;;;4994951;28;20479;-82
2020/12/13 12:14:56;;;;;;;53.27;37.87;;;;;;;;;;4999472;28;20467;-85
2020/12/13 12:17:32;;;;;;;53.17;41.23;;;;;;;;;;4999925;28;20828;-84
2020/12/13 12:19:58;;;;;;;55.10;39.70;;;;;;;;;;5000917;28;20434;-85
2020/12/13 12:22:25;;;;;;;52.33;41.87;;;;;;;;;;5001835;28;20924;-85
2020/12/13 12:24:54;;;;;;;51.33;40.47;;;;;;;;;;5000022;28;20543;-84
2020/12/13 12:27:20;;;;;;;53.40;42.10;;;;;;;;;;4988329;28;20451;-84
2020/12/13 12:29:48;;;;;;;55.43;41.90;;;;;;;;;;4987304;28;20428;-85
2020/12/13 12:32:15;;;;;;;54.77;42.47;;;;;;;;;;4987739;28;20427;-84
2020/12/13 12:34:42;;;;;;;53.00;40.93;;;;;;;;;;4997124;28;20447;-84
2020/12/13 12:37:17;;;;;;;60.77;42.83;;;;;;;;;;4998620;28;20411;-83
2020/12/13 12:39:43;;;;;;;66.03;48.23;;;;;;;;;;4992965;28;20471;-82
2020/12/13 12:42:24;;;;;;;61.80;45.07;;;;;;;;;;4992297;28;20446;-84
2020/12/13 12:44:51;;;;;;;57.43;43.30;;;;;;;;;;4993825;28;20451;-82
2020/12/13 12:47:27;;;;;;;58.10;43.63;;;;;;;;;;4998895;28;20467;-85
2020/12/13 12:49:54;;;;;;;53.00;42.47;;;;;;;;;;4973593;28;20923;-81
2020/12/13 12:52:20;;;;;;;59.07;42.17;;;;;;;;;;4991090;28;20416;-81
2020/12/13 12:54:46;;;;;;;53.90;44.33;;;;;;;;;;5018899;28;20467;-82
2020/12/13 12:57:13;;;;;;;53.00;45.73;;;;;;;;;;5016874;28;20446;-83
2020/12/13 13:00:26;;;;;;;58.63;46.20;;;;;;;;;;4993573;28;20427;-82
2020/12/13 13:02:33;;;;;;;55.17;43.80;;;;;;;;;;5007724;28;20421;-81
2020/12/13 13:05:04;;;;;;;65.97;41.60;;;;;;;;;;5018465;28;20457;-82
2020/12/13 13:07:34;;;;;;;61.47;48.23;;;;;;;;;;5022208;28;20426;-82
2020/12/13 13:10:17;;;;;;;54.07;44.87;;;;;;;;;;5035039;28;20419;-83
2020/12/13 13:12:47;;;;;;;51.57;42.70;;;;;;;;;;5020242;28;20418;-82
2020/12/13 13:15:18;;;;;;;57.73;44.47;;;;;;;;;;5030687;28;20462;-82
2020/12/13 13:17:53;;;;;;;63.70;43.70;;;;;;;;;;4994513;28;20780;-83
2020/12/13 13:20:19;;;;;;;54.03;44.73;;;;;;;;;;5000524;28;20408;-83
2020/12/13 13:22:46;;;;;;;59.70;46.00;;;;;;;;;;4994595;28;20863;-81
2020/12/13 13:25:12;;;;;;;55.00;47.30;;;;;;;;;;5016955;28;20496;-83
2020/12/13 13:27:41;;;;;;;61.10;45.10;;;;;;;;;;5025006;28;20431;-82
2020/12/13 13:30:12;;;;;;;73.70;53.57;;;;;;;;;;5012040;28;20422;-82
2020/12/13 13:32:40;;;;;;;61.53;50.43;;;;;;;;;;5022541;28;20421;-83
2020/12/13 13:35:07;;;;;;;56.03;43.83;;;;;;;;;;5002599;28;20466;-84
2020/12/13 13:37:38;;;;;;;57.37;46.63;;;;;;;;;;4992627;28;20474;-81
2020/12/13 13:40:04;;;;;;;55.87;41.83;;;;;;;;;;5005374;28;20472;-82
2020/12/13 13:42:32;;;;;;;53.20;42.20;;;;;;;;;;5014499;28;20429;-82
2020/12/13 13:50:43;;;;;;;57.67;43.53;;;;;;;;;;5025417;28;20415;-84
2020/12/13 13:53:10;;;;;;;53.00;45.60;;;;;;;;;;5010577;28;20429;-84
2020/12/13 13:55:53;;;;;;;61.73;46.47;;;;;;;;;;5012772;28;20470;-82
2020/12/13 13:58:24;;;;;;;60.80;43.80;;;;;;;;;;5024233;28;20430;-84
2020/12/13 14:00:50;;;;;;;55.97;44.43;;;;;;;;;;4994167;28;20422;-84
2020/12/13 14:03:16;;;;;;;60.97;41.33;;;;;;;;;;5003457;28;20426;-83
2020/12/13 14:05:48;;;;;;;62.10;44.40;;;;;;;;;;5014688;28;20451;-83
2020/12/13 14:10:59;;;;;;;;;;;;;;;;;;;;;
2020/12/13 14:13:41;;;;;;;63.72;45.47;;;;;;;;;;5019614;28;20505;-84
2020/12/13 14:16:32;;;;;;;62.47;44.35;;;;;;;;;;5005403;28;20227;-84
2020/12/13 14:18:58;;;;;;;56.63;44.50;;;;;;;;;;4995510;28;20184;-84
2020/12/13 14:21:24;;;;;;;60.50;43.53;;;;;;;;;;5001056;28;20419;-84
2020/12/13 14:23:50;;;;;;;58.10;43.23;;;;;;;;;;4985417;28;21099;-83
2020/12/13 14:26:41;;;;;;;58.63;44.30;;;;;;;;;;4984278;28;20582;-84
2020/12/13 14:29:08;;;;;;;64.53;44.50;;;;;;;;;;5014171;28;20470;-83
2020/12/13 14:31:50;;;;;;;57.40;43.33;;;;;;;;;;5002476;28;20628;-84
2020/12/13 14:34:22;;;;;;;54.47;42.97;;;;;;;;;;5020730;28;20446;-82
2020/12/13 14:36:51;;;;;;;71.10;48.87;;;;;;;;;;5020808;28;20477;-82
2020/12/13 14:39:18;;;;;;;68.23;51.80;;;;;;;;;;5007300;28;20772;-82
2020/12/13 14:41:50;;;;;;;59.53;47.30;;;;;;;;;;5004756;28;20423;-82
2020/12/13 14:44:24;;;;;;;56.22;45.28;;;;;;;;;;5003478;28;20435;-84
2020/12/13 14:46:54;;;;;;;61.28;47.10;;;;;;;;;;4993589;28;20168;-83